Time;durP1;ratioP1;P1;durP2;ratioP2;P2;SDS_P1;SDS_P2;PMS_P1;PMS_P2;Temp;Humidity;BMP_temperature;BMP_pressure;BME280_temperature;BME280_humidity;BME280_pressure;Samples;Min_cycle;Max_cycle;Signal;HPM_P1;HPM_P2
2024/02/28 00:00:03;;;;;;;5.77;5.57;;;;;;;;;;5125012;27;20442;-81
2024/02/28 00:02:30;;;;;;;3.47;3.37;;;;;;;;;;5134457;27;20457;-78
2024/02/28 00:04:58;;;;;;;4.80;4.70;;;;;;;;;;5130964;27;20818;-78
2024/02/28 00:07:25;;;;;;;5.30;5.10;;;;;;;;;;5110162;28;20452;-78
2024/02/28 00:09:51;;;;;;;6.50;6.30;;;;;;;;;;5121310;27;20478;-77
2024/02/28 00:12:18;;;;;;;7.00;6.73;;;;;;;;;;5125232;27;20482;-77
2024/02/28 00:14:44;;;;;;;6.73;6.53;;;;;;;;;;5113386;28;20544;-77
2024/02/28 00:17:11;;;;;;;7.50;7.00;;;;;;;;;;5125734;27;20533;-76
2024/02/28 00:19:37;;;;;;;6.20;6.00;;;;;;;;;;5119630;28;21210;-77
2024/02/28 00:22:05;;;;;;;5.93;5.73;;;;;;;;;;5119739;27;20516;-77
2024/02/28 00:24:31;;;;;;;5.43;5.23;;;;;;;;;;5125594;27;20536;-77
2024/02/28 00:26:57;;;;;;;7.50;7.20;;;;;;;;;;5123072;27;20470;-77
2024/02/28 00:29:24;;;;;;;4.70;4.60;;;;;;;;;;5120538;27;20438;-77
2024/02/28 00:31:50;;;;;;;15.23;14.47;;;;;;;;;;5092852;28;20491;-77
2024/02/28 00:34:17;;;;;;;6.70;6.50;;;;;;;;;;5120949;27;20517;-77
2024/02/28 00:36:43;;;;;;;6.40;6.20;;;;;;;;;;5117372;28;20482;-77
2024/02/28 00:39:11;;;;;;;5.30;5.10;;;;;;;;;;5135340;27;20480;-77
2024/02/28 00:41:38;;;;;;;6.13;5.93;;;;;;;;;;5121371;27;20480;-79
2024/02/28 00:44:04;;;;;;;5.50;5.30;;;;;;;;;;5114483;27;20543;-79
2024/02/28 00:46:31;;;;;;;7.63;7.33;;;;;;;;;;5125363;27;20474;-79
2024/02/28 00:48:57;;;;;;;5.40;5.20;;;;;;;;;;5117720;27;20485;-78
2024/02/28 00:51:24;;;;;;;7.83;7.13;;;;;;;;;;5117430;27;21015;-79
2024/02/28 00:53:50;;;;;;;5.60;5.40;;;;;;;;;;5124836;27;20482;-78
2024/02/28 00:56:18;;;;;;;8.60;8.20;;;;;;;;;;5115798;27;20466;-78
2024/02/28 00:58:45;;;;;;;5.70;5.50;;;;;;;;;;5106940;28;20511;-78
2024/02/28 01:01:11;;;;;;;5.77;5.57;;;;;;;;;;5111422;27;20465;-78
2024/02/28 01:03:38;;;;;;;6.87;6.67;;;;;;;;;;5127453;27;20492;-78
2024/02/28 01:06:04;;;;;;;3.80;3.70;;;;;;;;;;5122243;27;20509;-78
2024/02/28 01:08:31;;;;;;;3.80;3.70;;;;;;;;;;5126017;27;20540;-78
2024/02/28 01:10:58;;;;;;;4.37;3.87;;;;;;;;;;5117245;27;20502;-78
2024/02/28 01:13:26;;;;;;;3.40;3.30;;;;;;;;;;5120195;27;20458;-78
2024/02/28 01:15:54;;;;;;;6.77;6.47;;;;;;;;;;5118993;27;20466;-78
2024/02/28 01:18:20;;;;;;;5.40;5.20;;;;;;;;;;5125574;27;20489;-77
2024/02/28 01:20:46;;;;;;;5.40;5.20;;;;;;;;;;5134154;27;20976;-77
2024/02/28 01:23:13;;;;;;;5.97;5.77;;;;;;;;;;5120578;27;20461;-78
2024/02/28 01:25:39;;;;;;;6.93;6.63;;;;;;;;;;5126981;27;21014;-77
2024/02/28 01:28:06;;;;;;;5.60;5.43;;;;;;;;;;5127933;27;20631;-78
2024/02/28 01:30:33;;;;;;;5.10;4.90;;;;;;;;;;5123902;27;20958;-78
2024/02/28 01:33:00;;;;;;;4.70;4.60;;;;;;;;;;5117615;28;20454;-79
2024/02/28 01:35:27;;;;;;;5.17;4.97;;;;;;;;;;5115392;28;20569;-78
2024/02/28 01:37:53;;;;;;;9.73;9.13;;;;;;;;;;5118874;27;20526;-77
2024/02/28 01:40:20;;;;;;;5.37;5.17;;;;;;;;;;5118006;27;20521;-78
2024/02/28 01:42:47;;;;;;;4.70;4.50;;;;;;;;;;5102308;28;20865;-79
2024/02/28 01:45:15;;;;;;;5.03;4.87;;;;;;;;;;5118945;27;20499;-78
2024/02/28 01:47:43;;;;;;;6.70;6.50;;;;;;;;;;5122603;28;20540;-80
2024/02/28 01:50:10;;;;;;;4.00;3.90;;;;;;;;;;5119065;28;20456;-79
2024/02/28 01:52:37;;;;;;;4.90;4.70;;;;;;;;;;5117934;28;20461;-79
2024/02/28 01:55:03;;;;;;;4.77;4.57;;;;;;;;;;5116914;28;20496;-79
2024/02/28 01:57:30;;;;;;;6.20;6.00;;;;;;;;;;5112992;28;20525;-80
2024/02/28 01:59:57;;;;;;;4.70;4.60;;;;;;;;;;5111161;28;20512;-78
2024/02/28 02:02:25;;;;;;;4.50;4.40;;;;;;;;;;5113499;28;20477;-77
2024/02/28 02:04:54;;;;;;;4.40;4.30;;;;;;;;;;5117188;28;20843;-77
2024/02/28 02:07:20;;;;;;;4.53;4.43;;;;;;;;;;5112543;28;20494;-78
2024/02/28 02:09:47;;;;;;;6.03;5.82;;;;;;;;;;5124995;28;20494;-77
2024/02/28 02:12:13;;;;;;;5.80;5.60;;;;;;;;;;5128890;28;20571;-77
2024/02/28 02:14:40;;;;;;;4.40;4.30;;;;;;;;;;5115327;28;20484;-78
2024/02/28 02:17:06;;;;;;;5.10;4.90;;;;;;;;;;5120746;28;20446;-79
2024/02/28 02:19:33;;;;;;;4.47;4.37;;;;;;;;;;5113503;28;20465;-78
2024/02/28 02:22:03;;;;;;;3.40;3.30;;;;;;;;;;5121872;28;20457;-79
2024/02/28 02:24:31;;;;;;;3.10;3.00;;;;;;;;;;5124115;28;20503;-79
2024/02/28 02:26:58;;;;;;;4.43;4.33;;;;;;;;;;5112480;28;20480;-79
2024/02/28 02:29:24;;;;;;;4.60;4.50;;;;;;;;;;5125346;28;21045;-79
2024/02/28 02:31:51;;;;;;;5.40;5.20;;;;;;;;;;5115064;28;20477;-79
2024/02/28 02:34:17;;;;;;;7.17;6.87;;;;;;;;;;5118618;27;20509;-78
2024/02/28 02:36:44;;;;;;;4.87;4.70;;;;;;;;;;5121047;27;20461;-79
2024/02/28 02:39:10;;;;;;;4.80;4.70;;;;;;;;;;5125007;27;20564;-77
2024/02/28 02:41:38;;;;;;;5.37;5.17;;;;;;;;;;5122658;27;20541;-77
2024/02/28 02:44:04;;;;;;;5.33;5.13;;;;;;;;;;5120090;27;20480;-76
2024/02/28 02:46:31;;;;;;;6.43;6.23;;;;;;;;;;5112339;28;20433;-76
2024/02/28 02:48:57;;;;;;;4.97;4.80;;;;;;;;;;5135401;27;20493;-77
2024/02/28 02:51:25;;;;;;;31.90;30.33;;;;;;;;;;5124128;27;20454;-77
2024/02/28 02:53:51;;;;;;;5.20;5.00;;;;;;;;;;5120415;27;20458;-77
2024/02/28 02:56:18;;;;;;;5.70;5.50;;;;;;;;;;5128712;27;20812;-77
2024/02/28 02:58:45;;;;;;;5.40;5.20;;;;;;;;;;5123199;27;20537;-76
2024/02/28 03:01:12;;;;;;;5.50;5.30;;;;;;;;;;5128042;27;20518;-76
2024/02/28 03:03:38;;;;;;;7.20;7.00;;;;;;;;;;5116791;27;20487;-76
2024/02/28 03:06:05;;;;;;;5.40;5.20;;;;;;;;;;5111351;27;20445;-76
2024/02/28 03:08:32;;;;;;;6.90;6.60;;;;;;;;;;5120291;27;20453;-76
2024/02/28 03:10:59;;;;;;;3.20;3.10;;;;;;;;;;5121002;27;20451;-76
2024/02/28 03:13:25;;;;;;;8.33;7.93;;;;;;;;;;5137593;27;20509;-76
2024/02/28 03:15:53;;;;;;;3.70;3.60;;;;;;;;;;5113898;27;20509;-76
2024/02/28 03:18:19;;;;;;;7.50;7.20;;;;;;;;;;5125894;27;21145;-77
2024/02/28 03:20:46;;;;;;;7.93;7.63;;;;;;;;;;5132677;27;21136;-76
2024/02/28 03:23:12;;;;;;;5.27;5.07;;;;;;;;;;5123875;27;20506;-76
2024/02/28 03:25:39;;;;;;;3.40;3.30;;;;;;;;;;5105885;28;20478;-77
2024/02/28 03:28:05;;;;;;;3.40;3.30;;;;;;;;;;5123429;27;20473;-77
2024/02/28 03:30:32;;;;;;;4.90;4.70;;;;;;;;;;5127499;27;20582;-77
2024/02/28 03:32:59;;;;;;;3.30;3.20;;;;;;;;;;5130157;27;20458;-76
2024/02/28 03:35:26;;;;;;;3.80;3.70;;;;;;;;;;5126627;27;20247;-77
2024/02/28 03:37:52;;;;;;;5.07;4.70;;;;;;;;;;5117412;27;20554;-77
2024/02/28 03:40:18;;;;;;;4.80;4.60;;;;;;;;;;5115439;27;21011;-77
2024/02/28 03:42:45;;;;;;;3.00;2.90;;;;;;;;;;5113640;27;20450;-77
2024/02/28 03:45:12;;;;;;;3.30;3.20;;;;;;;;;;5121924;27;20447;-77
2024/02/28 03:47:38;;;;;;;3.10;3.00;;;;;;;;;;5118737;27;20957;-76
2024/02/28 03:50:07;;;;;;;5.37;4.90;;;;;;;;;;5122386;27;20225;-77
2024/02/28 03:52:33;;;;;;;3.63;3.53;;;;;;;;;;5133339;27;20499;-77
2024/02/28 03:54:59;;;;;;;6.30;5.70;;;;;;;;;;5125814;27;20260;-77
2024/02/28 03:57:26;;;;;;;3.00;2.90;;;;;;;;;;5120841;27;20446;-77
2024/02/28 03:59:52;;;;;;;6.10;5.90;;;;;;;;;;5119843;27;20463;-77
2024/02/28 04:02:19;;;;;;;19.30;18.43;;;;;;;;;;5114299;27;20466;-77
2024/02/28 04:04:45;;;;;;;2.50;2.40;;;;;;;;;;5125672;27;20462;-77
2024/02/28 04:07:13;;;;;;;6.00;5.70;;;;;;;;;;5116230;27;20479;-77
2024/02/28 04:09:39;;;;;;;3.03;2.93;;;;;;;;;;5113307;27;20528;-78
2024/02/28 04:12:06;;;;;;;14.30;13.70;;;;;;;;;;5129292;27;20979;-77
2024/02/28 04:14:32;;;;;;;5.37;5.17;;;;;;;;;;5127502;27;20744;-77
2024/02/28 04:16:59;;;;;;;2.80;2.70;;;;;;;;;;5128720;27;20517;-78
2024/02/28 04:19:26;;;;;;;26.97;24.73;;;;;;;;;;5127147;27;20243;-78
2024/02/28 04:21:52;;;;;;;7.85;7.45;;;;;;;;;;5134503;27;20461;-78
2024/02/28 04:24:20;;;;;;;2.60;2.50;;;;;;;;;;5116219;27;20285;-77
2024/02/28 04:26:46;;;;;;;2.60;2.50;;;;;;;;;;5123576;27;20529;-78
2024/02/28 04:29:13;;;;;;;3.13;3.03;;;;;;;;;;5122515;27;20993;-78
2024/02/28 04:31:40;;;;;;;5.20;5.00;;;;;;;;;;5127858;27;20893;-78
2024/02/28 04:34:06;;;;;;;7.03;6.57;;;;;;;;;;5122435;27;20497;-78
2024/02/28 04:36:33;;;;;;;2.87;2.77;;;;;;;;;;5124177;27;20520;-77
2024/02/28 04:39:00;;;;;;;4.28;4.07;;;;;;;;;;5126253;27;20481;-77
2024/02/28 04:41:28;;;;;;;2.90;2.80;;;;;;;;;;5124599;27;20200;-77
2024/02/28 04:43:55;;;;;;;3.00;2.90;;;;;;;;;;5130190;27;20900;-77
2024/02/28 04:46:21;;;;;;;2.80;2.70;;;;;;;;;;5106897;27;20511;-76
2024/02/28 04:48:47;;;;;;;3.00;2.90;;;;;;;;;;5114967;27;20233;-77
2024/02/28 04:51:16;;;;;;;5.07;4.77;;;;;;;;;;5115131;27;20505;-76
2024/02/28 04:53:42;;;;;;;2.67;2.57;;;;;;;;;;5119672;27;20451;-78
2024/02/28 04:56:09;;;;;;;4.67;4.47;;;;;;;;;;5123877;27;20568;-78
2024/02/28 04:58:37;;;;;;;2.23;2.13;;;;;;;;;;5125318;27;20469;-77
2024/02/28 05:01:04;;;;;;;2.20;2.10;;;;;;;;;;5126061;27;20791;-78
2024/02/28 05:03:30;;;;;;;2.27;2.17;;;;;;;;;;5133411;27;20481;-78
2024/02/28 05:05:57;;;;;;;2.50;2.40;;;;;;;;;;5115136;27;20535;-78
2024/02/28 05:08:23;;;;;;;2.40;2.30;;;;;;;;;;5119699;27;20458;-78
2024/02/28 05:10:50;;;;;;;2.40;2.30;;;;;;;;;;5107881;27;20546;-78
2024/02/28 05:13:17;;;;;;;2.73;2.63;;;;;;;;;;5106646;28;20455;-78
2024/02/28 05:15:44;;;;;;;2.63;2.53;;;;;;;;;;5124270;27;20496;-78
2024/02/28 05:18:11;;;;;;;2.90;2.80;;;;;;;;;;5116527;27;20506;-78
2024/02/28 05:20:37;;;;;;;2.90;2.80;;;;;;;;;;5119401;27;20470;-79
2024/02/28 05:23:04;;;;;;;2.80;2.70;;;;;;;;;;5120041;27;20485;-78
2024/02/28 05:25:31;;;;;;;3.23;3.13;;;;;;;;;;5123346;27;20454;-77
2024/02/28 05:27:58;;;;;;;2.90;2.80;;;;;;;;;;5121241;27;20514;-77
2024/02/28 05:30:24;;;;;;;3.33;3.23;;;;;;;;;;5120612;27;20446;-78
2024/02/28 05:32:52;;;;;;;2.80;2.70;;;;;;;;;;5113784;27;20449;-76
2024/02/28 05:35:18;;;;;;;5.00;4.80;;;;;;;;;;5131489;27;20505;-76
2024/02/28 05:37:46;;;;;;;6.53;6.23;;;;;;;;;;5124930;27;20540;-76
2024/02/28 05:40:12;;;;;;;2.60;2.50;;;;;;;;;;5118107;27;20497;-76
2024/02/28 05:42:39;;;;;;;2.57;2.47;;;;;;;;;;5110534;28;20493;-76
2024/02/28 05:45:06;;;;;;;10.57;9.17;;;;;;;;;;5117355;28;20922;-76
2024/02/28 05:47:33;;;;;;;14.23;11.50;;;;;;;;;;5120263;27;20484;-75
2024/02/28 05:50:01;;;;;;;9.63;8.93;;;;;;;;;;5136776;27;20457;-76
2024/02/28 05:52:27;;;;;;;4.90;4.60;;;;;;;;;;5111459;28;20962;-75
2024/02/28 05:54:54;;;;;;;3.63;3.53;;;;;;;;;;5124563;27;20501;-75
2024/02/28 05:57:20;;;;;;;4.73;4.33;;;;;;;;;;5113561;28;20930;-75
2024/02/28 05:59:46;;;;;;;8.80;4.87;;;;;;;;;;5128294;28;21137;-75
2024/02/28 06:02:13;;;;;;;3.93;3.63;;;;;;;;;;5116253;28;20454;-75
2024/02/28 06:04:39;;;;;;;4.53;4.23;;;;;;;;;;5123920;28;20511;-76
2024/02/28 06:07:07;;;;;;;6.40;4.87;;;;;;;;;;5115349;28;20522;-77
2024/02/28 06:09:34;;;;;;;14.17;5.13;;;;;;;;;;5121522;27;20482;-73
2024/02/28 06:12:01;;;;;;;4.77;3.97;;;;;;;;;;5116728;27;20883;-78
2024/02/28 06:14:28;;;;;;;8.00;7.20;;;;;;;;;;5129464;27;20454;-78
2024/02/28 06:16:54;;;;;;;2.83;2.73;;;;;;;;;;5122338;27;20585;-78
2024/02/28 06:19:20;;;;;;;1.80;1.80;;;;;;;;;;5112498;27;20504;-78
2024/02/28 06:21:47;;;;;;;2.17;2.07;;;;;;;;;;5116788;27;20474;-77
2024/02/28 06:24:15;;;;;;;2.47;2.27;;;;;;;;;;5116200;27;20513;-78
2024/02/28 06:26:43;;;;;;;12.83;12.13;;;;;;;;;;5118015;28;20523;-78
2024/02/28 06:29:09;;;;;;;12.23;7.63;;;;;;;;;;5122552;27;20446;-78
2024/02/28 06:31:36;;;;;;;9.60;7.00;;;;;;;;;;5126460;27;20437;-78
2024/02/28 06:34:03;;;;;;;5.83;5.33;;;;;;;;;;5131736;27;20508;-78
2024/02/28 06:36:29;;;;;;;8.73;8.03;;;;;;;;;;5132955;27;20481;-78
2024/02/28 06:38:56;;;;;;;11.90;6.57;;;;;;;;;;5121385;28;20450;-77
2024/02/28 06:41:24;;;;;;;31.07;7.30;;;;;;;;;;5127160;27;20223;-81
2024/02/28 06:43:50;;;;;;;30.80;8.43;;;;;;;;;;5109047;27;20477;-81
2024/02/28 06:46:17;;;;;;;7.47;4.90;;;;;;;;;;5129199;27;20483;-82
2024/02/28 06:48:44;;;;;;;5.00;4.70;;;;;;;;;;5118110;27;20496;-79
2024/02/28 06:51:10;;;;;;;8.63;3.53;;;;;;;;;;5130096;27;20442;-78
2024/02/28 06:53:37;;;;;;;2.83;2.60;;;;;;;;;;5125803;27;20514;-80
2024/02/28 06:56:03;;;;;;;2.73;2.57;;;;;;;;;;5126384;27;20531;-82
2024/02/28 06:58:31;;;;;;;2.57;2.47;;;;;;;;;;5124291;27;20473;-83
2024/02/28 07:00:58;;;;;;;5.20;4.70;;;;;;;;;;5132249;27;20945;-82
2024/02/28 07:03:24;;;;;;;3.30;3.20;;;;;;;;;;5134491;27;20485;-83
2024/02/28 07:05:51;;;;;;;5.00;4.70;;;;;;;;;;5122087;27;20450;-83
2024/02/28 07:08:18;;;;;;;5.57;5.27;;;;;;;;;;5113284;27;20515;-80
2024/02/28 07:10:49;;;;;;;2.80;2.70;;;;;;;;;;5131661;27;20453;-81
2024/02/28 07:13:14;;;;;;;4.60;4.30;;;;;;;;;;5124246;27;20543;-77
2024/02/28 07:15:43;;;;;;;14.40;13.20;;;;;;;;;;5130109;27;20506;-80
2024/02/28 07:18:10;;;;;;;4.43;4.20;;;;;;;;;;5114218;27;20234;-81
2024/02/28 07:20:36;;;;;;;15.13;6.13;;;;;;;;;;5120974;28;20478;-79
2024/02/28 07:23:03;;;;;;;13.83;9.10;;;;;;;;;;5121119;27;20477;-81
2024/02/28 07:25:29;;;;;;;13.63;4.00;;;;;;;;;;5120502;27;20445;-81
2024/02/28 07:27:57;;;;;;;1.80;1.80;;;;;;;;;;5129941;27;20449;-78
2024/02/28 07:30:24;;;;;;;2.23;2.13;;;;;;;;;;5129853;27;20438;-78
2024/02/28 07:32:52;;;;;;;7.10;5.97;;;;;;;;;;5115747;27;20474;-81
2024/02/28 07:35:18;;;;;;;3.30;3.00;;;;;;;;;;5114408;27;20450;-77
2024/02/28 07:37:45;;;;;;;4.70;4.47;;;;;;;;;;5113868;27;20454;-65
2024/02/28 07:40:11;;;;;;;1.90;1.90;;;;;;;;;;5120788;27;20511;-65
2024/02/28 07:42:38;;;;;;;8.20;5.40;;;;;;;;;;5119362;27;20519;-65
2024/02/28 07:45:05;;;;;;;7.70;3.17;;;;;;;;;;5122103;27;21531;-64
2024/02/28 07:47:31;;;;;;;6.30;5.80;;;;;;;;;;5124117;27;20498;-63
2024/02/28 07:49:59;;;;;;;2.90;2.80;;;;;;;;;;5114633;28;20476;-65
2024/02/28 07:52:25;;;;;;;10.67;9.60;;;;;;;;;;5115030;28;20535;-63
2024/02/28 07:54:52;;;;;;;3.77;3.57;;;;;;;;;;5108659;27;20462;-63
2024/02/28 07:57:18;;;;;;;4.17;3.20;;;;;;;;;;5134276;27;20480;-64
2024/02/28 07:59:45;;;;;;;4.43;4.23;;;;;;;;;;5123786;27;20442;-63
2024/02/28 08:02:12;;;;;;;3.00;2.90;;;;;;;;;;5124413;27;21127;-65
2024/02/28 08:04:39;;;;;;;2.93;2.83;;;;;;;;;;5124469;27;20517;-64
2024/02/28 08:07:06;;;;;;;2.80;2.70;;;;;;;;;;5134176;27;20524;-65
2024/02/28 08:09:33;;;;;;;7.80;7.37;;;;;;;;;;5114424;27;20442;-63
2024/02/28 08:11:59;;;;;;;8.40;7.60;;;;;;;;;;5114342;27;20507;-64
2024/02/28 08:14:26;;;;;;;4.40;4.20;;;;;;;;;;5120084;27;21303;-63
2024/02/28 08:16:52;;;;;;;2.80;2.70;;;;;;;;;;5122818;27;20481;-64
2024/02/28 08:19:18;;;;;;;2.90;2.80;;;;;;;;;;5119509;27;20446;-64
2024/02/28 08:21:45;;;;;;;5.37;5.07;;;;;;;;;;5125566;27;20485;-64
2024/02/28 08:24:13;;;;;;;4.03;3.83;;;;;;;;;;5118720;28;21294;-65
2024/02/28 08:26:40;;;;;;;4.23;4.03;;;;;;;;;;5117763;28;20466;-65
2024/02/28 08:29:07;;;;;;;3.87;3.77;;;;;;;;;;5118962;28;20459;-64
2024/02/28 08:31:33;;;;;;;10.33;7.40;;;;;;;;;;5127622;27;20535;-64
2024/02/28 08:34:00;;;;;;;6.33;5.97;;;;;;;;;;5122140;27;20477;-67
2024/02/28 08:36:26;;;;;;;3.20;3.10;;;;;;;;;;5101110;28;20489;-65
2024/02/28 08:38:53;;;;;;;5.73;5.33;;;;;;;;;;5122317;27;20481;-65
2024/02/28 08:41:20;;;;;;;6.70;6.10;;;;;;;;;;5114990;27;20433;-66
2024/02/28 08:43:47;;;;;;;6.03;5.73;;;;;;;;;;5125069;27;20451;-64
2024/02/28 08:46:14;;;;;;;3.40;3.30;;;;;;;;;;5122897;27;20520;-63
2024/02/28 08:48:41;;;;;;;4.07;3.97;;;;;;;;;;5114931;27;20994;-65
2024/02/28 08:51:07;;;;;;;3.70;3.60;;;;;;;;;;5127766;27;20525;-66
2024/02/28 08:53:34;;;;;;;3.27;3.17;;;;;;;;;;5126905;27;20486;-65
2024/02/28 08:56:00;;;;;;;3.83;3.63;;;;;;;;;;5130032;27;20475;-65
2024/02/28 08:58:28;;;;;;;5.73;5.33;;;;;;;;;;5132941;27;21130;-66
2024/02/28 09:00:55;;;;;;;4.90;4.57;;;;;;;;;;5122756;27;20564;-65
2024/02/28 09:03:22;;;;;;;5.40;4.90;;;;;;;;;;5116028;28;20530;-65
2024/02/28 09:05:48;;;;;;;6.70;5.03;;;;;;;;;;5118841;27;20458;-65
2024/02/28 09:08:15;;;;;;;8.47;7.97;;;;;;;;;;5113095;28;20458;-66
2024/02/28 09:10:41;;;;;;;4.20;4.10;;;;;;;;;;5110640;27;20467;-65
2024/02/28 09:13:08;;;;;;;6.83;6.20;;;;;;;;;;5128700;27;20481;-66
2024/02/28 09:15:36;;;;;;;6.60;6.10;;;;;;;;;;5129925;27;20824;-66
2024/02/28 09:18:02;;;;;;;11.80;8.43;;;;;;;;;;5129998;27;20515;-65
2024/02/28 09:20:28;;;;;;;11.53;10.60;;;;;;;;;;5126615;27;20474;-77
2024/02/28 09:22:55;;;;;;;11.77;10.63;;;;;;;;;;5108314;27;20498;-82
2024/02/28 09:25:22;;;;;;;13.27;10.77;;;;;;;;;;5118166;27;20877;-85
2024/02/28 09:27:48;;;;;;;5.10;4.80;;;;;;;;;;5124142;27;20493;-81
2024/02/28 09:30:15;;;;;;;10.87;8.73;;;;;;;;;;5123298;27;20529;-84
2024/02/28 09:32:44;;;;;;;8.47;7.90;;;;;;;;;;5125561;27;20969;-79
2024/02/28 09:35:11;;;;;;;8.10;7.30;;;;;;;;;;5123499;27;20558;-81
2024/02/28 09:37:38;;;;;;;8.77;7.90;;;;;;;;;;5116466;27;20510;-82
2024/02/28 09:40:05;;;;;;;6.57;6.10;;;;;;;;;;5122390;27;21012;-81
2024/02/28 09:42:32;;;;;;;5.87;5.57;;;;;;;;;;5131519;27;20465;-81
2024/02/28 09:45:01;;;;;;;5.50;5.10;;;;;;;;;;5117981;27;20446;-80
2024/02/28 09:47:28;;;;;;;20.33;8.23;;;;;;;;;;5126849;27;20526;-80
2024/02/28 09:49:58;;;;;;;5.73;5.33;;;;;;;;;;5130211;27;20450;-77
2024/02/28 09:52:25;;;;;;;6.13;5.77;;;;;;;;;;5125411;27;20482;-80
2024/02/28 09:54:51;;;;;;;6.27;5.80;;;;;;;;;;5124365;27;20605;-81
2024/02/28 09:57:18;;;;;;;7.57;7.07;;;;;;;;;;5117103;28;20481;-80
2024/02/28 09:59:45;;;;;;;7.67;6.90;;;;;;;;;;5113960;28;20446;-81
2024/02/28 10:02:12;;;;;;;6.60;6.27;;;;;;;;;;5118485;28;20451;-81
2024/02/28 10:04:39;;;;;;;3.13;3.03;;;;;;;;;;5122078;28;20442;-80
2024/02/28 10:07:14;;;;;;;3.00;2.90;;;;;;;;;;5124538;28;20474;-79
2024/02/28 10:09:40;;;;;;;4.80;4.60;;;;;;;;;;5126226;28;20565;-80
2024/02/28 10:12:07;;;;;;;7.30;5.60;;;;;;;;;;5123737;28;20967;-86
2024/02/28 10:14:34;;;;;;;5.53;4.17;;;;;;;;;;5125557;28;20565;-83
2024/02/28 10:17:00;;;;;;;8.27;7.53;;;;;;;;;;5127697;28;20482;-69
2024/02/28 10:19:26;;;;;;;12.17;10.07;;;;;;;;;;5127408;28;20453;-66
2024/02/28 10:21:53;;;;;;;52.37;10.77;;;;;;;;;;5116360;27;20453;-67
2024/02/28 10:24:21;;;;;;;14.07;9.40;;;;;;;;;;5115984;28;20462;-68
2024/02/28 10:26:55;;;;;;;5.37;5.13;;;;;;;;;;5117860;28;20446;-70
2024/02/28 10:29:21;;;;;;;4.10;3.90;;;;;;;;;;5116813;28;20907;-67
2024/02/28 10:31:48;;;;;;;17.00;9.07;;;;;;;;;;5119047;28;20466;-67
2024/02/28 10:34:16;;;;;;;8.80;6.97;;;;;;;;;;5131151;28;20473;-68
2024/02/28 10:36:45;;;;;;;8.57;7.60;;;;;;;;;;5125681;28;20849;-68
2024/02/28 10:39:12;;;;;;;14.60;9.13;;;;;;;;;;5115899;28;20485;-67
2024/02/28 10:41:40;;;;;;;4.50;4.30;;;;;;;;;;5117205;28;20989;-65
2024/02/28 10:44:07;;;;;;;10.97;7.77;;;;;;;;;;5127961;28;20478;-66
2024/02/28 10:46:33;;;;;;;9.10;6.70;;;;;;;;;;5124545;28;20450;-66
2024/02/28 10:49:00;;;;;;;7.50;6.87;;;;;;;;;;5119825;28;20469;-65
2024/02/28 10:51:26;;;;;;;6.13;5.83;;;;;;;;;;5117279;28;20976;-67
2024/02/28 10:54:00;;;;;;;11.80;8.10;;;;;;;;;;5106670;28;20470;-68
2024/02/28 10:56:30;;;;;;;7.57;6.50;;;;;;;;;;5117483;27;20457;-68
2024/02/28 10:58:59;;;;;;;16.47;8.63;;;;;;;;;;5118766;27;20491;-68
2024/02/28 11:01:26;;;;;;;8.73;4.30;;;;;;;;;;5111647;28;20919;-66
2024/02/28 11:03:54;;;;;;;7.73;7.33;;;;;;;;;;5120559;28;20456;-66
2024/02/28 11:06:21;;;;;;;6.63;5.97;;;;;;;;;;5131091;27;20513;-68
2024/02/28 11:08:48;;;;;;;10.43;5.37;;;;;;;;;;5118223;27;20835;-67
2024/02/28 11:11:15;;;;;;;17.53;9.00;;;;;;;;;;5111594;28;21175;-65
2024/02/28 11:13:52;;;;;;;3.03;2.93;;;;;;;;;;5122817;27;20449;-65
2024/02/28 11:16:26;;;;;;;6.00;5.80;;;;;;;;;;5115109;27;20442;-65
2024/02/28 11:18:53;;;;;;;13.00;11.03;;;;;;;;;;5111772;28;20445;-68
2024/02/28 11:21:19;;;;;;;12.60;11.30;;;;;;;;;;5115402;27;20541;-67
2024/02/28 11:23:47;;;;;;;13.67;12.50;;;;;;;;;;5134589;27;20958;-67
2024/02/28 11:26:14;;;;;;;10.50;9.90;;;;;;;;;;5126824;27;20460;-79
2024/02/28 11:28:40;;;;;;;5.50;5.30;;;;;;;;;;5124602;27;20494;-78
2024/02/28 11:31:07;;;;;;;4.70;4.60;;;;;;;;;;5117844;28;20478;-77
2024/02/28 11:33:35;;;;;;;8.13;6.90;;;;;;;;;;5131534;27;20484;-78
2024/02/28 11:36:03;;;;;;;16.03;10.10;;;;;;;;;;5127061;27;20526;-78
2024/02/28 11:38:29;;;;;;;21.97;11.37;;;;;;;;;;5127375;27;20500;-77
2024/02/28 11:40:56;;;;;;;10.00;9.30;;;;;;;;;;5124319;27;20529;-78
2024/02/28 11:43:22;;;;;;;9.00;8.50;;;;;;;;;;5130514;27;20468;-78
2024/02/28 11:45:49;;;;;;;13.20;12.00;;;;;;;;;;5128255;27;20482;-78
2024/02/28 11:48:15;;;;;;;7.40;6.90;;;;;;;;;;5121570;27;20469;-77
2024/02/28 11:50:43;;;;;;;11.80;10.83;;;;;;;;;;5127677;27;20485;-79
2024/02/28 11:53:10;;;;;;;7.60;7.30;;;;;;;;;;5127401;27;20448;-77
2024/02/28 11:55:38;;;;;;;13.20;5.13;;;;;;;;;;5125606;27;20556;-77
2024/02/28 11:58:08;;;;;;;20.77;13.47;;;;;;;;;;5137694;27;20572;-77
2024/02/28 12:00:34;;;;;;;5.80;5.30;;;;;;;;;;5120456;27;20514;-77
2024/02/28 12:03:05;;;;;;;16.17;12.53;;;;;;;;;;5123303;27;20442;-76
2024/02/28 12:05:32;;;;;;;7.73;7.43;;;;;;;;;;5121634;27;20462;-78
2024/02/28 12:07:59;;;;;;;11.70;10.80;;;;;;;;;;5120835;27;20481;-75
2024/02/28 12:10:26;;;;;;;6.37;6.17;;;;;;;;;;5108624;28;21166;-66
2024/02/28 12:12:53;;;;;;;2.73;2.63;;;;;;;;;;5116999;27;20462;-65
2024/02/28 12:15:20;;;;;;;11.80;10.63;;;;;;;;;;5128279;27;20536;-65
2024/02/28 12:17:46;;;;;;;11.53;10.43;;;;;;;;;;5111281;27;20498;-65
2024/02/28 12:20:13;;;;;;;3.20;3.10;;;;;;;;;;5122888;27;20477;-66
2024/02/28 12:22:39;;;;;;;11.43;10.23;;;;;;;;;;5118399;27;20554;-64
2024/02/28 12:25:08;;;;;;;4.10;3.90;;;;;;;;;;5119770;27;20458;-63
2024/02/28 12:27:34;;;;;;;6.10;5.90;;;;;;;;;;5130665;27;20539;-64
2024/02/28 12:30:01;;;;;;;6.77;6.37;;;;;;;;;;5127743;27;20486;-64
2024/02/28 12:32:27;;;;;;;8.63;7.90;;;;;;;;;;5123782;27;20441;-64
2024/02/28 12:34:54;;;;;;;3.77;3.57;;;;;;;;;;5128650;27;20529;-65
2024/02/28 12:37:21;;;;;;;23.50;12.17;;;;;;;;;;5120872;27;20887;-65
2024/02/28 12:39:47;;;;;;;9.73;8.60;;;;;;;;;;5127465;27;20493;-65
2024/02/28 12:42:15;;;;;;;6.13;5.63;;;;;;;;;;5127811;27;20442;-66
2024/02/28 12:44:45;;;;;;;9.63;8.73;;;;;;;;;;5129529;27;20465;-66
2024/02/28 12:47:12;;;;;;;7.53;5.30;;;;;;;;;;5131156;27;20442;-65
2024/02/28 12:49:38;;;;;;;7.87;6.00;;;;;;;;;;5110847;28;20501;-66
2024/02/28 12:52:05;;;;;;;7.47;6.93;;;;;;;;;;5113696;27;20726;-67
2024/02/28 12:54:31;;;;;;;6.77;6.47;;;;;;;;;;5112052;27;20501;-65
2024/02/28 12:56:59;;;;;;;5.33;5.13;;;;;;;;;;5124363;27;20453;-66
2024/02/28 12:59:27;;;;;;;3.40;3.30;;;;;;;;;;5123096;27;20522;-65
2024/02/28 13:01:53;;;;;;;9.53;5.60;;;;;;;;;;5125452;27;20474;-64
2024/02/28 13:04:19;;;;;;;4.87;4.47;;;;;;;;;;5129984;27;21201;-65
2024/02/28 13:06:46;;;;;;;4.83;4.50;;;;;;;;;;5118441;27;21005;-64
2024/02/28 13:09:13;;;;;;;26.27;3.90;;;;;;;;;;5118930;27;20480;-66
2024/02/28 13:11:39;;;;;;;10.50;5.60;;;;;;;;;;5113997;27;20476;-64
2024/02/28 13:14:07;;;;;;;3.50;3.40;;;;;;;;;;5109852;27;20455;-64
2024/02/28 13:16:35;;;;;;;86.67;7.70;;;;;;;;;;5110771;27;20446;-63
2024/02/28 13:19:02;;;;;;;32.33;9.37;;;;;;;;;;5125144;27;20548;-67
2024/02/28 13:21:28;;;;;;;17.83;11.53;;;;;;;;;;5127737;27;20460;-68
2024/02/28 13:23:55;;;;;;;6.50;6.00;;;;;;;;;;5107590;27;20493;-64
2024/02/28 13:26:21;;;;;;;6.07;5.57;;;;;;;;;;5116853;27;20465;-65
2024/02/28 13:28:48;;;;;;;9.90;7.07;;;;;;;;;;5125746;27;20465;-66
2024/02/28 13:31:16;;;;;;;8.60;8.00;;;;;;;;;;5110490;27;20457;-65
2024/02/28 13:33:44;;;;;;;4.50;4.30;;;;;;;;;;5118105;27;20462;-67
2024/02/28 13:36:10;;;;;;;7.33;6.60;;;;;;;;;;5114528;27;20450;-63
2024/02/28 13:38:36;;;;;;;5.93;5.37;;;;;;;;;;5112891;28;20513;-67
2024/02/28 13:41:03;;;;;;;3.30;3.20;;;;;;;;;;5111410;27;20449;-66
2024/02/28 13:43:29;;;;;;;3.73;3.63;;;;;;;;;;5100971;28;20446;-65
2024/02/28 13:46:00;;;;;;;6.57;6.27;;;;;;;;;;5111166;28;20490;-65
2024/02/28 13:48:28;;;;;;;8.07;7.60;;;;;;;;;;5110304;28;20438;-66
2024/02/28 13:50:56;;;;;;;5.67;5.37;;;;;;;;;;5104603;28;20442;-66
2024/02/28 13:53:24;;;;;;;16.37;8.23;;;;;;;;;;5106968;28;20587;-66
2024/02/28 13:55:51;;;;;;;5.70;5.27;;;;;;;;;;5110709;28;20547;-65
2024/02/28 13:58:17;;;;;;;3.17;3.07;;;;;;;;;;5120874;27;20474;-64
2024/02/28 14:00:45;;;;;;;3.50;3.30;;;;;;;;;;5109054;28;20450;-64
2024/02/28 14:03:11;;;;;;;3.33;3.03;;;;;;;;;;5109430;28;20445;-77
2024/02/28 14:05:38;;;;;;;2.50;2.40;;;;;;;;;;5114009;28;20470;-75
2024/02/28 14:08:08;;;;;;;4.97;4.73;;;;;;;;;;5110931;28;20474;-78
2024/02/28 14:10:34;;;;;;;9.47;7.33;;;;;;;;;;5103806;28;20463;-81
2024/02/28 14:13:01;;;;;;;4.77;4.57;;;;;;;;;;5108687;28;20478;-83
2024/02/28 14:15:27;;;;;;;4.80;4.60;;;;;;;;;;5113950;28;20454;-79
2024/02/28 14:17:54;;;;;;;2.90;2.80;;;;;;;;;;5112680;28;20520;-78
2024/02/28 14:20:20;;;;;;;3.97;3.83;;;;;;;;;;5113949;28;20450;-75
2024/02/28 14:22:47;;;;;;;5.17;4.63;;;;;;;;;;5109397;28;20494;-76
2024/02/28 14:25:15;;;;;;;6.33;6.00;;;;;;;;;;5100823;28;20466;-77
2024/02/28 14:27:43;;;;;;;3.93;3.73;;;;;;;;;;5121353;28;20519;-80
2024/02/28 14:30:10;;;;;;;4.93;4.73;;;;;;;;;;5118621;27;20506;-82
2024/02/28 14:32:36;;;;;;;4.07;3.97;;;;;;;;;;5130145;27;20482;-83
2024/02/28 14:35:03;;;;;;;3.60;3.50;;;;;;;;;;5119184;27;20453;-84
2024/02/28 14:37:29;;;;;;;3.93;3.83;;;;;;;;;;5124629;27;20496;-84